Terminal Aerodrome Forecast
Issued by NWS Norman, OK

Home | Current Version | Previous Version | Text Only | Print | Product List | Glossary On
Versions: 1 2 3 4 5 6 7 8 9 10 11 12 13 14 15 16 17 18 19 20 21 22 23 24 25 26 27 28 29 30 31 32 33 34 35 36 37 38 39
000
FTUS44 KOUN 070344 AAB
TAFSPS
TAF AMD
KSPS 070344Z 0704/0724 16014G22KT P6SM -TSRA OVC060CB
      TEMPO 0704/0706 16023G33KT 3SM TSRA FEW007 BKN025CB
     FM070700 15012G17KT 5SM BR OVC008 PROB30 0718/0721 5SM TSRA
      OVC008CB
     FM072100 13012G17KT P6SM BKN025 PROB30 0721/0724 5SM TSRA
      OVC015CB=

USA.gov is the U.S. government's official web portal to all federal, state and local government web resources and services.